sensor_id;sensor_type;location;lat;lon;timestamp;pressure;altitude;pressure_sealevel;temperature;humidity
74552;BME280;63025;55.472;38.432;2022-11-20T00:00:13;100272.69;;;1.02;73.23
74552;BME280;63025;55.472;38.432;2022-11-20T00:02:39;100271.72;;;1.03;73.55
74552;BME280;63025;55.472;38.432;2022-11-20T00:05:06;100267.09;;;1.05;73.69
74552;BME280;63025;55.472;38.432;2022-11-20T00:07:31;100274.06;;;1.06;74.30
74552;BME280;63025;55.472;38.432;2022-11-20T00:09:57;100276.56;;;1.07;73.84
74552;BME280;63025;55.472;38.432;2022-11-20T00:12:23;100274.63;;;1.09;73.42
74552;BME280;63025;55.472;38.432;2022-11-20T00:14:49;100274.91;;;1.06;72.83
74552;BME280;63025;55.472;38.432;2022-11-20T00:17:15;100276.56;;;1.07;73.40
74552;BME280;63025;55.472;38.432;2022-11-20T00:19:40;100279.09;;;1.09;73.29
74552;BME280;63025;55.472;38.432;2022-11-20T00:22:06;100269.75;;;1.05;72.95
74552;BME280;63025;55.472;38.432;2022-11-20T00:24:32;100281.16;;;1.05;73.30
74552;BME280;63025;55.472;38.432;2022-11-20T00:26:58;100281.44;;;1.12;73.94
74552;BME280;63025;55.472;38.432;2022-11-20T00:29:24;100279.78;;;1.11;72.48
74552;BME280;63025;55.472;38.432;2022-11-20T00:31:50;100272.81;;;1.10;72.58
74552;BME280;63025;55.472;38.432;2022-11-20T00:34:16;100275.47;;;1.10;72.43
74552;BME280;63025;55.472;38.432;2022-11-20T00:36:42;100273.78;;;1.09;72.92
74552;BME280;63025;55.472;38.432;2022-11-20T00:39:07;100281.72;;;1.09;72.21
74552;BME280;63025;55.472;38.432;2022-11-20T00:41:33;100280.63;;;1.12;72.97
74552;BME280;63025;55.472;38.432;2022-11-20T00:43:59;100279.50;;;1.14;72.85
74552;BME280;63025;55.472;38.432;2022-11-20T00:46:26;100271.56;;;1.14;71.90
74552;BME280;63025;55.472;38.432;2022-11-20T00:48:53;100278.53;;;1.05;72.52
74552;BME280;63025;55.472;38.432;2022-11-20T00:51:21;100276.00;;;1.04;72.58
74552;BME280;63025;55.472;38.432;2022-11-20T00:53:47;100277.84;;;1.03;72.07
74552;BME280;63025;55.472;38.432;2022-11-20T00:56:16;100287.88;;;1.00;71.90
74552;BME280;63025;55.472;38.432;2022-11-20T00:58:44;100276.59;;;0.98;72.10
74552;BME280;63025;55.472;38.432;2022-11-20T01:01:18;100280.50;;;1.03;72.29
74552;BME280;63025;55.472;38.432;2022-11-20T01:03:46;100272.97;;;1.08;72.37
74552;BME280;63025;55.472;38.432;2022-11-20T01:06:17;100282.44;;;1.11;71.82
74552;BME280;63025;55.472;38.432;2022-11-20T01:08:44;100276.44;;;1.09;72.21
74552;BME280;63025;55.472;38.432;2022-11-20T01:11:25;100283.69;;;1.07;72.24
74552;BME280;63025;55.472;38.432;2022-11-20T01:13:52;100285.91;;;1.12;72.62
74552;BME280;63025;55.472;38.432;2022-11-20T01:16:23;100279.81;;;1.01;71.91
74552;BME280;63025;55.472;38.432;2022-11-20T01:18:52;100277.72;;;0.95;71.63
74552;BME280;63025;55.472;38.432;2022-11-20T01:21:29;100280.34;;;0.95;71.61
74552;BME280;63025;55.472;38.432;2022-11-20T01:23:56;100277.72;;;0.95;72.14
74552;BME280;63025;55.472;38.432;2022-11-20T01:26:26;100278.28;;;0.99;72.92
74552;BME280;63025;55.472;38.432;2022-11-20T01:28:53;100282.31;;;1.03;72.50
74552;BME280;63025;55.472;38.432;2022-11-20T01:33:49;100281.06;;;0.97;72.00
74552;BME280;63025;55.472;38.432;2022-11-20T01:36:17;100287.19;;;0.98;71.33
74552;BME280;63025;55.472;38.432;2022-11-20T01:38:44;100279.69;;;0.93;72.26
74552;BME280;63025;55.472;38.432;2022-11-20T01:41:12;100286.78;;;0.93;72.24
74552;BME280;63025;55.472;38.432;2022-11-20T01:43:59;100283.31;;;0.92;72.23
74552;BME280;63025;55.472;38.432;2022-11-20T01:46:25;100285.28;;;0.81;72.35
74552;BME280;63025;55.472;38.432;2022-11-20T01:52:04;100281.63;;;0.91;72.39
74552;BME280;63025;55.472;38.432;2022-11-20T01:54:36;100285.78;;;0.94;72.11
74552;BME280;63025;55.472;38.432;2022-11-20T01:57:06;100286.09;;;0.91;71.92
74552;BME280;63025;55.472;38.432;2022-11-20T01:59:34;100295.28;;;0.87;72.25
74552;BME280;63025;55.472;38.432;2022-11-20T02:02:01;100298.75;;;0.87;72.39
74552;BME280;63025;55.472;38.432;2022-11-20T02:04:26;100304.59;;;0.91;72.75
74552;BME280;63025;55.472;38.432;2022-11-20T02:06:59;100312.81;;;0.88;71.92
74552;BME280;63025;55.472;38.432;2022-11-20T02:09:27;100305.03;;;0.86;72.03
74552;BME280;63025;55.472;38.432;2022-11-20T02:11:53;100311.41;;;0.84;71.75
74552;BME280;63025;55.472;38.432;2022-11-20T02:14:21;100310.19;;;0.88;71.36
74552;BME280;63025;55.472;38.432;2022-11-20T02:16:48;100315.59;;;0.86;71.39
74552;BME280;63025;55.472;38.432;2022-11-20T02:19:32;100310.31;;;0.86;71.25
74552;BME280;63025;55.472;38.432;2022-11-20T02:22:00;100314.75;;;0.86;70.57
74552;BME280;63025;55.472;38.432;2022-11-20T02:24:27;100316.72;;;0.84;70.87
74552;BME280;63025;55.472;38.432;2022-11-20T02:26:57;100318.13;;;0.78;71.23
74552;BME280;63025;55.472;38.432;2022-11-20T02:29:37;100320.06;;;0.76;71.57
74552;BME280;63025;55.472;38.432;2022-11-20T02:32:05;100319.38;;;0.74;70.93
74552;BME280;63025;55.472;38.432;2022-11-20T02:34:31;100328.84;;;0.77;71.23
74552;BME280;63025;55.472;38.432;2022-11-20T02:36:59;100319.22;;;0.76;71.06
74552;BME280;63025;55.472;38.432;2022-11-20T02:39:26;100320.34;;;0.73;71.08
74552;BME280;63025;55.472;38.432;2022-11-20T02:41:54;100327.28;;;0.74;71.67
74552;BME280;63025;55.472;38.432;2022-11-20T02:44:21;100337.03;;;0.73;71.25
74552;BME280;63025;55.472;38.432;2022-11-20T02:46:47;100332.31;;;0.77;71.49
74552;BME280;63025;55.472;38.432;2022-11-20T02:49:13;100339.28;;;0.68;71.33
74552;BME280;63025;55.472;38.432;2022-11-20T02:51:38;100333.28;;;0.66;70.97
74552;BME280;63025;55.472;38.432;2022-11-20T02:54:04;100346.78;;;0.73;71.58
74552;BME280;63025;55.472;38.432;2022-11-20T02:56:30;100346.50;;;0.66;70.98
74552;BME280;63025;55.472;38.432;2022-11-20T02:58:56;100337.03;;;0.73;71.63
74552;BME280;63025;55.472;38.432;2022-11-20T03:01:22;100342.34;;;0.73;71.63
74552;BME280;63025;55.472;38.432;2022-11-20T03:03:48;100340.81;;;0.71;71.38
74552;BME280;63025;55.472;38.432;2022-11-20T03:06:15;100347.09;;;0.70;71.22
74552;BME280;63025;55.472;38.432;2022-11-20T03:08:41;100344.13;;;0.73;71.42
74552;BME280;63025;55.472;38.432;2022-11-20T03:11:09;100340.97;;;0.69;71.56
74552;BME280;63025;55.472;38.432;2022-11-20T03:13:35;100338.31;;;0.69;71.02
74552;BME280;63025;55.472;38.432;2022-11-20T03:16:06;100342.50;;;0.72;71.18
74552;BME280;63025;55.472;38.432;2022-11-20T03:18:32;100346.50;;;0.66;71.14
74552;BME280;63025;55.472;38.432;2022-11-20T03:20:58;100353.75;;;0.64;70.81
74552;BME280;63025;55.472;38.432;2022-11-20T03:23:25;100348.06;;;0.59;70.48
74552;BME280;63025;55.472;38.432;2022-11-20T03:25:51;100352.06;;;0.63;70.50
74552;BME280;63025;55.472;38.432;2022-11-20T03:28:17;100351.66;;;0.58;71.03
74552;BME280;63025;55.472;38.432;2022-11-20T03:30:44;100357.66;;;0.60;70.85
74552;BME280;63025;55.472;38.432;2022-11-20T03:33:10;100360.97;;;0.62;70.77
74552;BME280;63025;55.472;38.432;2022-11-20T03:35:36;100358.06;;;0.65;71.09
74552;BME280;63025;55.472;38.432;2022-11-20T03:38:02;100361.69;;;0.64;71.45
74552;BME280;63025;55.472;38.432;2022-11-20T03:40:28;100359.34;;;0.61;70.77
74552;BME280;63025;55.472;38.432;2022-11-20T03:42:55;100367.81;;;0.55;70.75
74552;BME280;63025;55.472;38.432;2022-11-20T03:45:22;100367.81;;;0.55;71.45
74552;BME280;63025;55.472;38.432;2022-11-20T03:47:47;100361.53;;;0.56;71.13
74552;BME280;63025;55.472;38.432;2022-11-20T03:50:14;100372.53;;;0.52;70.95
74552;BME280;63025;55.472;38.432;2022-11-20T03:52:40;100368.78;;;0.54;71.31
74552;BME280;63025;55.472;38.432;2022-11-20T03:55:07;100368.78;;;0.54;70.81
74552;BME280;63025;55.472;38.432;2022-11-20T03:57:33;100359.31;;;0.52;70.88
74552;BME280;63025;55.472;38.432;2022-11-20T03:59:59;100359.84;;;0.46;70.73
74552;BME280;63025;55.472;38.432;2022-11-20T04:02:24;100360.28;;;0.41;71.13
74552;BME280;63025;55.472;38.432;2022-11-20T04:04:50;100366.53;;;0.40;71.15
74552;BME280;63025;55.472;38.432;2022-11-20T04:07:16;100370.69;;;0.43;70.92
74552;BME280;63025;55.472;38.432;2022-11-20T04:09:42;100383.91;;;0.43;71.29
74552;BME280;63025;55.472;38.432;2022-11-20T04:12:08;100380.44;;;0.42;70.18
74552;BME280;63025;55.472;38.432;2022-11-20T04:14:34;100387.69;;;0.40;70.94
74552;BME280;63025;55.472;38.432;2022-11-20T04:17:00;100388.09;;;0.35;70.66
74552;BME280;63025;55.472;38.432;2022-11-20T04:19:26;100383.75;;;0.34;70.62
74552;BME280;63025;55.472;38.432;2022-11-20T04:21:51;100393.25;;;0.37;70.73
74552;BME280;63025;55.472;38.432;2022-11-20T04:24:17;100393.25;;;0.37;70.37
74552;BME280;63025;55.472;38.432;2022-11-20T04:26:43;100392.53;;;0.35;70.55
74552;BME280;63025;55.472;38.432;2022-11-20T04:29:10;100393.94;;;0.39;70.93
74552;BME280;63025;55.472;38.432;2022-11-20T04:31:36;100394.66;;;0.41;70.38
74552;BME280;63025;55.472;38.432;2022-11-20T04:34:04;100392.00;;;0.41;70.52
74552;BME280;63025;55.472;38.432;2022-11-20T04:36:31;100394.06;;;0.38;70.14
74552;BME280;63025;55.472;38.432;2022-11-20T04:38:59;100404.66;;;0.38;70.91
74552;BME280;63025;55.472;38.432;2022-11-20T04:41:31;100408.25;;;0.36;70.54
74552;BME280;63025;55.472;38.432;2022-11-20T04:43:59;100419.69;;;0.37;70.43
74552;BME280;63025;55.472;38.432;2022-11-20T04:46:30;100421.34;;;0.38;70.26
74552;BME280;63025;55.472;38.432;2022-11-20T04:48:56;100422.91;;;0.41;69.82
74552;BME280;63025;55.472;38.432;2022-11-20T04:51:23;100430.81;;;0.41;70.69
74552;BME280;63025;55.472;38.432;2022-11-20T04:53:48;100435.94;;;0.42;69.98
74552;BME280;63025;55.472;38.432;2022-11-20T04:56:15;100421.59;;;0.35;69.91
74552;BME280;63025;55.472;38.432;2022-11-20T04:58:41;100433.03;;;0.35;69.86
74552;BME280;63025;55.472;38.432;2022-11-20T05:01:11;100425.66;;;0.39;70.85
74552;BME280;63025;55.472;38.432;2022-11-20T05:03:38;100423.03;;;0.39;70.43
74552;BME280;63025;55.472;38.432;2022-11-20T05:06:05;100435.53;;;0.37;70.56
74552;BME280;63025;55.472;38.432;2022-11-20T05:08:32;100435.25;;;0.30;70.38
74552;BME280;63025;55.472;38.432;2022-11-20T05:11:06;100447.47;;;0.31;70.21
74552;BME280;63025;55.472;38.432;2022-11-20T05:13:33;100451.09;;;0.30;69.90
74552;BME280;63025;55.472;38.432;2022-11-20T05:16:13;100456.94;;;0.34;70.47
74552;BME280;63025;55.472;38.432;2022-11-20T05:18:40;100459.59;;;0.34;69.91
74552;BME280;63025;55.472;38.432;2022-11-20T05:21:07;100470.44;;;0.31;69.97
74552;BME280;63025;55.472;38.432;2022-11-20T05:23:34;100469.75;;;0.29;70.18
74552;BME280;63025;55.472;38.432;2022-11-20T05:26:01;100480.88;;;0.32;69.75
74552;BME280;63025;55.472;38.432;2022-11-20T05:28:29;100476.41;;;0.33;69.69
74552;BME280;63025;55.472;38.432;2022-11-20T05:30:55;100478.09;;;0.34;69.74
74552;BME280;63025;55.472;38.432;2022-11-20T05:33:21;100482.53;;;0.33;69.76
74552;BME280;63025;55.472;38.432;2022-11-20T05:35:48;100482.53;;;0.33;69.94
74552;BME280;63025;55.472;38.432;2022-11-20T05:38:14;100483.13;;;0.37;70.24
74552;BME280;63025;55.472;38.432;2022-11-20T05:40:40;100484.66;;;0.40;70.61
74552;BME280;63025;55.472;38.432;2022-11-20T05:43:06;100495.13;;;0.41;69.95
74552;BME280;63025;55.472;38.432;2022-11-20T05:45:32;100492.59;;;0.40;69.80
74552;BME280;63025;55.472;38.432;2022-11-20T05:47:59;100492.47;;;0.41;70.01
74552;BME280;63025;55.472;38.432;2022-11-20T05:50:27;100490.22;;;0.36;69.63
74552;BME280;63025;55.472;38.432;2022-11-20T05:52:53;100498.97;;;0.37;69.70
74552;BME280;63025;55.472;38.432;2022-11-20T05:55:19;100504.00;;;0.40;69.55
74552;BME280;63025;55.472;38.432;2022-11-20T05:57:45;100504.56;;;0.44;70.07
74552;BME280;63025;55.472;38.432;2022-11-20T06:00:11;100507.66;;;0.49;69.66
74552;BME280;63025;55.472;38.432;2022-11-20T06:02:38;100516.56;;;0.48;69.30
74552;BME280;63025;55.472;38.432;2022-11-20T06:05:04;100520.63;;;0.52;69.28
74552;BME280;63025;55.472;38.432;2022-11-20T06:07:30;100509.63;;;0.56;69.70
74552;BME280;63025;55.472;38.432;2022-11-20T06:09:56;100520.75;;;0.50;69.44
74552;BME280;63025;55.472;38.432;2022-11-20T06:12:22;100528.22;;;0.45;69.14
74552;BME280;63025;55.472;38.432;2022-11-20T06:14:48;100523.66;;;0.47;69.44
74552;BME280;63025;55.472;38.432;2022-11-20T06:17:14;100531.63;;;0.57;69.29
74552;BME280;63025;55.472;38.432;2022-11-20T06:19:40;100531.38;;;0.60;69.16
74552;BME280;63025;55.472;38.432;2022-11-20T06:22:06;100535.97;;;0.67;69.62
74552;BME280;63025;55.472;38.432;2022-11-20T06:24:32;100546.44;;;0.69;68.41
74552;BME280;63025;55.472;38.432;2022-11-20T06:26:57;100542.50;;;0.63;69.02
74552;BME280;63025;55.472;38.432;2022-11-20T06:29:23;100554.19;;;0.61;68.52
74552;BME280;63025;55.472;38.432;2022-11-20T06:31:49;100558.34;;;0.63;68.68
74552;BME280;63025;55.472;38.432;2022-11-20T06:34:15;100573.72;;;0.69;68.78
74552;BME280;63025;55.472;38.432;2022-11-20T06:36:41;100569.56;;;0.77;68.83
74552;BME280;63025;55.472;38.432;2022-11-20T06:39:07;100582.03;;;0.65;68.78
74552;BME280;63025;55.472;38.432;2022-11-20T06:41:32;100570.38;;;0.67;68.86
74552;BME280;63025;55.472;38.432;2022-11-20T06:43:58;100581.66;;;0.69;68.79
74552;BME280;63025;55.472;38.432;2022-11-20T06:46:24;100579.31;;;0.76;68.85
74552;BME280;63025;55.472;38.432;2022-11-20T06:48:50;100571.41;;;0.86;69.08
74552;BME280;63025;55.472;38.432;2022-11-20T06:51:17;100578.81;;;0.92;68.59
74552;BME280;63025;55.472;38.432;2022-11-20T06:53:43;100573.19;;;0.85;67.80
74552;BME280;63025;55.472;38.432;2022-11-20T06:56:09;100570.44;;;0.87;67.97
74552;BME280;63025;55.472;38.432;2022-11-20T06:58:36;100565.84;;;0.89;67.82
74552;BME280;63025;55.472;38.432;2022-11-20T07:01:05;100567.94;;;0.95;68.42
74552;BME280;63025;55.472;38.432;2022-11-20T07:03:31;100561.28;;;1.00;68.11
74552;BME280;63025;55.472;38.432;2022-11-20T07:05:58;100555.16;;;1.00;67.75
74552;BME280;63025;55.472;38.432;2022-11-20T07:08:25;100548.59;;;1.04;67.34
74552;BME280;63025;55.472;38.432;2022-11-20T07:10:51;100543.19;;;1.15;67.41
74552;BME280;63025;55.472;38.432;2022-11-20T07:13:17;100548.66;;;1.23;67.33
74552;BME280;63025;55.472;38.432;2022-11-20T07:15:43;100545.59;;;1.28;67.20
74552;BME280;63025;55.472;38.432;2022-11-20T07:18:09;100538.91;;;1.33;67.29
74552;BME280;63025;55.472;38.432;2022-11-20T07:20:35;100547.13;;;1.40;67.31
74552;BME280;63025;55.472;38.432;2022-11-20T07:23:01;100544.75;;;1.46;66.17
74552;BME280;63025;55.472;38.432;2022-11-20T07:25:28;100550.34;;;1.53;66.53
74552;BME280;63025;55.472;38.432;2022-11-20T07:27:58;100562.75;;;1.62;65.72
74552;BME280;63025;55.472;38.432;2022-11-20T07:30:24;100577.94;;;1.60;66.01
74552;BME280;63025;55.472;38.432;2022-11-20T07:32:52;100571.53;;;1.63;66.39
74552;BME280;63025;55.472;38.432;2022-11-20T07:35:19;100571.69;;;1.71;66.55
74552;BME280;63025;55.472;38.432;2022-11-20T07:37:45;100578.53;;;1.64;65.56
74552;BME280;63025;55.472;38.432;2022-11-20T07:40:15;100584.66;;;1.64;66.12
74552;BME280;63025;55.472;38.432;2022-11-20T07:42:51;100590.09;;;1.63;65.19
74552;BME280;63025;55.472;38.432;2022-11-20T07:45:19;100597.34;;;1.70;65.90
74552;BME280;63025;55.472;38.432;2022-11-20T07:47:45;100604.44;;;1.79;66.17
74552;BME280;63025;55.472;38.432;2022-11-20T07:50:11;100596.63;;;1.88;65.34
74552;BME280;63025;55.472;38.432;2022-11-20T07:52:37;100595.00;;;1.87;65.43
74552;BME280;63025;55.472;38.432;2022-11-20T07:55:04;100591.19;;;1.89;65.49
74552;BME280;63025;55.472;38.432;2022-11-20T07:57:30;100579.75;;;1.98;64.99
74552;BME280;63025;55.472;38.432;2022-11-20T07:59:56;100585.47;;;2.03;64.58
74552;BME280;63025;55.472;38.432;2022-11-20T08:02:23;100568.88;;;2.01;64.69
74552;BME280;63025;55.472;38.432;2022-11-20T08:04:49;100578.91;;;1.98;64.76
74552;BME280;63025;55.472;38.432;2022-11-20T08:07:15;100591.06;;;2.00;64.30
74552;BME280;63025;55.472;38.432;2022-11-20T08:09:40;100597.31;;;1.99;65.29
74552;BME280;63025;55.472;38.432;2022-11-20T08:12:06;100601.25;;;1.95;64.62
74552;BME280;63025;55.472;38.432;2022-11-20T08:14:51;100598.16;;;2.00;64.15
74552;BME280;63025;55.472;38.432;2022-11-20T08:17:17;100605.13;;;2.01;64.84
74552;BME280;63025;55.472;38.432;2022-11-20T08:19:42;100600.81;;;2.09;65.08
74552;BME280;63025;55.472;38.432;2022-11-20T08:22:08;100603.59;;;2.17;64.85
74552;BME280;63025;55.472;38.432;2022-11-20T08:24:34;100600.78;;;2.29;64.06
74552;BME280;63025;55.472;38.432;2022-11-20T08:27:00;100596.88;;;2.33;63.66
74552;BME280;63025;55.472;38.432;2022-11-20T08:29:26;100597.84;;;2.32;64.17
74552;BME280;63025;55.472;38.432;2022-11-20T08:31:52;100608.19;;;2.35;63.45
74552;BME280;63025;55.472;38.432;2022-11-20T08:34:18;100613.75;;;2.32;63.87
74552;BME280;63025;55.472;38.432;2022-11-20T08:36:44;100620.72;;;2.33;63.76
74552;BME280;63025;55.472;38.432;2022-11-20T08:39:12;100616.00;;;2.36;63.35
74552;BME280;63025;55.472;38.432;2022-11-20T08:41:38;100622.13;;;2.37;63.85
74552;BME280;63025;55.472;38.432;2022-11-20T08:44:06;100616.28;;;2.33;63.63
74552;BME280;63025;55.472;38.432;2022-11-20T08:46:36;100616.28;;;2.33;64.25
74552;BME280;63025;55.472;38.432;2022-11-20T08:49:04;100601.19;;;2.34;63.57
74552;BME280;63025;55.472;38.432;2022-11-20T08:51:30;100617.81;;;2.36;63.23
74552;BME280;63025;55.472;38.432;2022-11-20T08:53:56;100618.91;;;2.33;63.04
74552;BME280;63025;55.472;38.432;2022-11-20T08:56:22;100636.66;;;2.33;63.37
74552;BME280;63025;55.472;38.432;2022-11-20T08:58:50;100646.19;;;2.06;63.55
74552;BME280;63025;55.472;38.432;2022-11-20T09:01:16;100654.81;;;1.99;63.79
74552;BME280;63025;55.472;38.432;2022-11-20T09:03:42;100649.66;;;2.07;63.71
74552;BME280;63025;55.472;38.432;2022-11-20T09:06:08;100640.72;;;2.17;63.92
74552;BME280;63025;55.472;38.432;2022-11-20T09:08:34;100645.84;;;2.29;63.38
74552;BME280;63025;55.472;38.432;2022-11-20T09:11:01;100657.88;;;2.33;63.64
74552;BME280;63025;55.472;38.432;2022-11-20T09:13:28;100656.63;;;2.37;63.63
74552;BME280;63025;55.472;38.432;2022-11-20T09:15:56;100659.53;;;2.43;63.80
74552;BME280;63025;55.472;38.432;2022-11-20T09:18:24;100658.69;;;2.43;63.70
74552;BME280;63025;55.472;38.432;2022-11-20T09:20:55;100665.66;;;2.44;63.85
74552;BME280;63025;55.472;38.432;2022-11-20T09:23:21;100673.34;;;2.47;64.53
74552;BME280;63025;55.472;38.432;2022-11-20T09:25:47;100671.22;;;2.50;63.92
74552;BME280;63025;55.472;38.432;2022-11-20T09:28:13;100673.63;;;2.53;63.48
74552;BME280;63025;55.472;38.432;2022-11-20T09:30:39;100676.81;;;2.57;62.93
74552;BME280;63025;55.472;38.432;2022-11-20T09:33:05;100678.19;;;2.61;62.81
74552;BME280;63025;55.472;38.432;2022-11-20T09:35:33;100685.63;;;2.57;63.07
74552;BME280;63025;55.472;38.432;2022-11-20T09:38:04;100686.88;;;2.53;62.98
74552;BME280;63025;55.472;38.432;2022-11-20T09:40:30;100684.22;;;2.53;63.38
74552;BME280;63025;55.472;38.432;2022-11-20T09:43:19;100696.94;;;2.60;63.59
74552;BME280;63025;55.472;38.432;2022-11-20T09:46:28;100701.81;;;2.64;63.11
74552;BME280;63025;55.472;38.432;2022-11-20T09:52:01;100708.66;;;2.67;62.80
74552;BME280;63025;55.472;38.432;2022-11-20T09:54:37;100702.50;;;2.66;63.02
74552;BME280;63025;55.472;38.432;2022-11-20T09:57:11;100706.13;;;2.65;62.88
74552;BME280;63025;55.472;38.432;2022-11-20T09:59:43;100706.41;;;2.62;63.09
74552;BME280;63025;55.472;38.432;2022-11-20T10:02:17;100711.59;;;2.54;63.56
74552;BME280;63025;55.472;38.432;2022-11-20T10:05:11;100707.00;;;2.56;63.35
74552;BME280;63025;55.472;38.432;2022-11-20T10:07:53;100718.16;;;2.50;63.55
74552;BME280;63025;55.472;38.432;2022-11-20T10:10:34;100723.31;;;2.51;63.99
74552;BME280;63025;55.472;38.432;2022-11-20T10:22:07;100730.56;;;2.40;63.73
74552;BME280;63025;55.472;38.432;2022-11-20T10:24:56;100725.56;;;2.37;63.61
74552;BME280;63025;55.472;38.432;2022-11-20T10:30:18;100728.22;;;2.37;63.78
74552;BME280;63025;55.472;38.432;2022-11-20T10:32:48;100732.69;;;2.36;63.66
74552;BME280;63025;55.472;38.432;2022-11-20T10:35:21;100740.22;;;2.31;64.20
74552;BME280;63025;55.472;38.432;2022-11-20T10:38:00;100744.66;;;2.11;63.42
74552;BME280;63025;55.472;38.432;2022-11-20T10:40:39;100743.28;;;2.07;63.94
74552;BME280;63025;55.472;38.432;2022-11-20T10:46:00;100749.94;;;1.92;64.96
74552;BME280;63025;55.472;38.432;2022-11-20T10:48:28;100748.72;;;1.96;64.88
74552;BME280;63025;55.472;38.432;2022-11-20T10:56:40;100756.66;;;1.96;64.68
74552;BME280;63025;55.472;38.432;2022-11-20T11:01:52;100757.78;;;1.94;65.65
74552;BME280;63025;55.472;38.432;2022-11-20T11:07:12;100764.44;;;1.88;65.88
74552;BME280;63025;55.472;38.432;2022-11-20T11:09:43;100761.25;;;1.84;65.97
74552;BME280;63025;55.472;38.432;2022-11-20T11:12:10;100756.78;;;1.85;65.86
74552;BME280;63025;55.472;38.432;2022-11-20T11:14:50;100761.25;;;1.84;65.60
74552;BME280;63025;55.472;38.432;2022-11-20T11:17:27;100758.97;;;1.80;66.14
74552;BME280;63025;55.472;38.432;2022-11-20T11:20:06;100747.53;;;1.70;66.95
74552;BME280;63025;55.472;38.432;2022-11-20T11:25:35;100759.09;;;1.69;66.58
74552;BME280;63025;55.472;38.432;2022-11-20T11:30:44;100758.56;;;1.75;67.07
74552;BME280;63025;55.472;38.432;2022-11-20T11:33:12;100763.88;;;1.75;66.29
74552;BME280;63025;55.472;38.432;2022-11-20T11:35:49;100763.00;;;1.65;67.35
74552;BME280;63025;55.472;38.432;2022-11-20T11:38:36;100768.78;;;1.49;66.91
74552;BME280;63025;55.472;38.432;2022-11-20T11:41:06;100772.09;;;1.41;66.89
74552;BME280;63025;55.472;38.432;2022-11-20T11:43:35;100775.97;;;1.37;68.16
74552;BME280;63025;55.472;38.432;2022-11-20T11:46:31;100773.19;;;1.39;68.31
74552;BME280;63025;55.472;38.432;2022-11-20T11:54:38;100775.94;;;1.28;67.92
74552;BME280;63025;55.472;38.432;2022-11-20T12:05:26;100784.63;;;1.39;68.27
74552;BME280;63025;55.472;38.432;2022-11-20T12:08:05;100784.63;;;1.39;68.36
74552;BME280;63025;55.472;38.432;2022-11-20T12:13:35;100783.66;;;1.40;68.64
74552;BME280;63025;55.472;38.432;2022-11-20T12:16:04;100782.09;;;1.38;68.31
74552;BME280;63025;55.472;38.432;2022-11-20T12:18:31;100785.84;;;1.35;67.86
74552;BME280;63025;55.472;38.432;2022-11-20T12:21:20;100785.44;;;1.30;68.61
74552;BME280;63025;55.472;38.432;2022-11-20T12:38:46;100798.19;;;1.25;69.74
74552;BME280;63025;55.472;38.432;2022-11-20T12:44:41;100792.28;;;1.12;70.03
74552;BME280;63025;55.472;38.432;2022-11-20T12:50:17;100785.88;;;1.15;69.98
74552;BME280;63025;55.472;38.432;2022-11-20T12:55:31;100800.50;;;1.09;69.96
74552;BME280;63025;55.472;38.432;2022-11-20T12:58:13;100795.19;;;1.09;70.45
74552;BME280;63025;55.472;38.432;2022-11-20T13:07:04;100809.03;;;1.13;70.29
74552;BME280;63025;55.472;38.432;2022-11-20T13:09:32;100813.34;;;1.14;70.79
74552;BME280;63025;55.472;38.432;2022-11-20T13:14:37;100811.53;;;1.14;70.36
74552;BME280;63025;55.472;38.432;2022-11-20T13:17:18;100797.59;;;1.12;70.82
74552;BME280;63025;55.472;38.432;2022-11-20T13:19:54;100812.63;;;1.12;70.35
74552;BME280;63025;55.472;38.432;2022-11-20T13:22:28;100813.47;;;1.12;71.24
74552;BME280;63025;55.472;38.432;2022-11-20T13:24:56;100810.81;;;1.12;71.19
74552;BME280;63025;55.472;38.432;2022-11-20T13:27:47;100822.38;;;1.11;71.87
74552;BME280;63025;55.472;38.432;2022-11-20T13:30:16;100822.94;;;1.15;71.25
74552;BME280;63025;55.472;38.432;2022-11-20T13:35:32;100813.19;;;1.15;71.18
74552;BME280;63025;55.472;38.432;2022-11-20T13:38:09;100812.34;;;1.15;70.73
74552;BME280;63025;55.472;38.432;2022-11-20T13:40:37;100829.34;;;1.12;71.72
74552;BME280;63025;55.472;38.432;2022-11-20T13:45:36;100841.34;;;1.16;72.10
74552;BME280;63025;55.472;38.432;2022-11-20T13:48:20;100841.63;;;1.13;71.26
74552;BME280;63025;55.472;38.432;2022-11-20T14:01:23;100826.72;;;1.12;71.03
74552;BME280;63025;55.472;38.432;2022-11-20T14:03:51;100823.94;;;1.14;71.44
74552;BME280;63025;55.472;38.432;2022-11-20T14:06:27;100838.00;;;1.14;71.92
74552;BME280;63025;55.472;38.432;2022-11-20T14:08:55;100842.59;;;1.12;72.42
74552;BME280;63025;55.472;38.432;2022-11-20T14:11:23;100853.19;;;1.12;72.20
74552;BME280;63025;55.472;38.432;2022-11-20T14:13:56;100844.97;;;1.15;71.83
74552;BME280;63025;55.472;38.432;2022-11-20T14:16:23;100853.63;;;1.17;72.56
74552;BME280;63025;55.472;38.432;2022-11-20T14:18:49;100846.66;;;1.16;71.94
74552;BME280;63025;55.472;38.432;2022-11-20T14:21:27;100849.28;;;1.16;71.94
74552;BME280;63025;55.472;38.432;2022-11-20T14:24:13;100844.13;;;1.15;71.92
74552;BME280;63025;55.472;38.432;2022-11-20T14:26:44;100857.09;;;1.18;71.63
74552;BME280;63025;55.472;38.432;2022-11-20T14:29:13;100853.50;;;1.19;71.10
74552;BME280;63025;55.472;38.432;2022-11-20T14:31:40;100855.06;;;1.21;72.16
74552;BME280;63025;55.472;38.432;2022-11-20T14:34:28;100857.69;;;1.21;72.02
74552;BME280;63025;55.472;38.432;2022-11-20T14:37:04;100868.66;;;1.17;72.08
74552;BME280;63025;55.472;38.432;2022-11-20T14:39:37;100878.53;;;1.15;71.49
74552;BME280;63025;55.472;38.432;2022-11-20T14:42:15;100873.13;;;1.16;71.79
74552;BME280;63025;55.472;38.432;2022-11-20T14:44:42;100876.72;;;1.15;71.92